Time;durP1;ratioP1;P1;durP2;ratioP2;P2;SDS_P1;SDS_P2;PMS_P1;PMS_P2;Temp;Humidity;BMP_temperature;BMP_pressure;BME280_temperature;BME280_humidity;BME280_pressure;Samples;Min_cycle;Max_cycle;Signal;HPM_P1;HPM_P2
2023/01/17 00:01:35;;;;;;;;;;;;;;;6.78;100.00;96842.50;5014529;28;19917;-83
2023/01/17 00:12:12;;;;;;;;;;;;;;;7.07;100.00;96856.97;5033866;28;20019;-83
2023/01/17 00:14:37;;;;;;;;;;;;;;;7.18;100.00;96860.56;5032738;28;20004;-83
2023/01/17 00:17:03;;;;;;;;;;;;;;;7.19;100.00;96854.34;5033745;28;19921;-84
2023/01/17 05:24:56;;;;;;;;;;;;;;;4.50;100.00;96815.34;4990901;28;20339;-82
2023/01/17 05:27:21;;;;;;;;;;;;;;;4.43;100.00;96811.44;4993755;28;19926;-81
2023/01/17 05:29:47;;;;;;;;;;;;;;;4.39;100.00;96824.84;4993767;28;19928;-82
2023/01/17 05:32:12;;;;;;;;;;;;;;;4.45;100.00;96825.31;4993559;28;19957;-81
2023/01/17 05:34:37;;;;;;;;;;;;;;;4.45;100.00;96824.44;4979475;28;19918;-84
2023/01/17 05:37:02;;;;;;;;;;;;;;;4.39;100.00;96828.31;4996184;28;20361;-82
2023/01/17 05:39:29;;;;;;;;;;;;;;;4.39;100.00;96823.09;4979858;28;19918;-85
2023/01/17 05:41:54;;;;;;;;;;;;;;;4.40;100.00;96816.88;4997346;28;19918;-84
2023/01/17 05:44:20;;;;;;;;;;;;;;;4.43;100.00;96821.94;4979882;28;19922;-83
2023/01/17 05:46:45;;;;;;;;;;;;;;;4.38;100.00;96818.78;4997370;28;19949;-84
2023/01/17 05:49:13;;;;;;;;;;;;;;;4.36;100.00;96825.91;4978690;28;19925;-83
2023/01/17 05:51:38;;;;;;;;;;;;;;;4.35;100.00;96821.59;4977903;28;20463;-83
2023/01/17 05:54:04;;;;;;;;;;;;;;;4.36;100.00;96818.03;4979539;28;19925;-86
2023/01/17 05:56:32;;;;;;;;;;;;;;;4.40;100.00;96824.75;4979648;28;20405;-83
2023/01/17 05:58:58;;;;;;;;;;;;;;;4.37;100.00;96832.81;4995752;28;19961;-85
2023/01/17 06:01:23;;;;;;;;;;;;;;;4.38;100.00;96829.25;4979605;28;19945;-83
2023/01/17 06:03:49;;;;;;;;;;;;;;;4.36;100.00;96820.66;4979758;28;19918;-85
2023/01/17 06:06:14;;;;;;;;;;;;;;;4.36;100.00;96826.72;4979522;28;19933;-86
2023/01/17 06:08:39;;;;;;;;;;;;;;;4.31;100.00;96833.22;4978099;28;20285;-84
2023/01/17 06:11:05;;;;;;;;;;;;;;;4.30;100.00;96829.75;4979389;28;19925;-84
2023/01/17 06:13:30;;;;;;;;;;;;;;;4.26;100.00;96835.28;4996885;28;19925;-83
2023/01/17 06:16:01;;;;;;;;;;;;;;;4.27;100.00;96821.25;4975151;28;19921;-83
2023/01/17 06:18:26;;;;;;;;;;;;;;;4.28;100.00;96822.94;4996681;28;20314;-83
2023/01/17 06:20:53;;;;;;;;;;;;;;;4.36;100.00;96826.72;4996608;28;20008;-85
2023/01/17 06:23:18;;;;;;;;;;;;;;;4.34;100.00;96817.28;4979021;28;19932;-83
2023/01/17 06:25:46;;;;;;;;;;;;;;;4.29;100.00;96814.13;5011694;28;20012;-82
2023/01/17 06:28:13;;;;;;;;;;;;;;;4.39;100.00;96809.97;4996425;28;20361;-83
2023/01/17 06:30:44;;;;;;;;;;;;;;;4.39;100.00;96804.72;4996564;28;19940;-83
2023/01/17 06:33:10;;;;;;;;;;;;;;;4.38;100.00;96804.84;5011416;28;19918;-83
2023/01/17 06:35:39;;;;;;;;;;;;;;;4.41;100.00;96797.59;4995073;28;20042;-86
2023/01/17 06:38:05;;;;;;;;;;;;;;;4.34;100.00;96797.16;5010086;28;19980;-83
2023/01/17 06:40:30;;;;;;;;;;;;;;;4.42;100.00;96806.28;5011368;28;20365;-83
2023/01/17 06:43:00;;;;;;;;;;;;;;;4.39;100.00;96804.72;5011431;28;20365;-84
2023/01/17 06:45:25;;;;;;;;;;;;;;;4.39;100.00;96799.50;5010178;28;19957;-85
2023/01/17 06:47:53;;;;;;;;;;;;;;;4.32;100.00;96798.19;4996231;28;20395;-84
2023/01/17 06:50:18;;;;;;;;;;;;;;;4.36;100.00;96804.94;4994702;28;19917;-85
2023/01/17 06:52:52;;;;;;;;;;;;;;;4.31;100.00;96801.78;4994781;28;19925;-85
2023/01/17 06:55:27;;;;;;;;;;;;;;;4.33;100.00;96792.84;4996071;28;20415;-83
2023/01/17 06:57:59;;;;;;;;;;;;;;;4.32;100.00;96811.31;5011226;28;20270;-86
2023/01/17 07:00:25;;;;;;;;;;;;;;;4.28;100.00;96796.72;4995878;28;19930;-84
2023/01/17 07:02:51;;;;;;;;;;;;;;;4.31;100.00;96807.00;5010962;28;19925;-85
2023/01/17 07:05:16;;;;;;;;;;;;;;;4.33;100.00;96797.25;5010909;28;19918;-84
2023/01/17 07:07:42;;;;;;;;;;;;;;;4.27;100.00;96801.09;4994790;28;19925;-84
2023/01/17 07:10:08;;;;;;;;;;;;;;;4.30;100.00;96800.91;5010820;28;20032;-83
2023/01/17 07:12:33;;;;;;;;;;;;;;;4.29;100.00;96799.25;5010989;28;19985;-84
2023/01/17 07:14:58;;;;;;;;;;;;;;;4.28;100.00;96796.72;4994516;28;20323;-84
2023/01/17 07:17:24;;;;;;;;;;;;;;;4.29;100.00;96793.16;4995497;28;19922;-83
2023/01/17 07:19:49;;;;;;;;;;;;;;;4.31;100.00;96793.91;4995652;28;19925;-85
2023/01/17 07:22:14;;;;;;;;;;;;;;;4.32;100.00;96787.72;5009240;28;19918;-90
2023/01/17 07:24:39;;;;;;;;;;;;;;;4.33;100.00;96784.16;4995488;28;20399;-84
2023/01/17 07:27:05;;;;;;;;;;;;;;;4.32;100.00;96777.22;4995492;28;20373;-83
2023/01/17 07:29:31;;;;;;;;;;;;;;;4.28;100.00;96773.97;4977955;28;19918;-83
2023/01/17 07:31:56;;;;;;;;;;;;;;;4.33;100.00;96781.53;4995355;28;20300;-84
2023/01/17 07:34:21;;;;;;;;;;;;;;;4.29;100.00;96777.41;4995231;28;19918;-84
2023/01/17 07:36:48;;;;;;;;;;;;;;;4.31;100.00;96780.81;4976607;28;20365;-84
2023/01/17 07:39:13;;;;;;;;;;;;;;;4.29;100.00;96782.66;4995152;28;19929;-86
2023/01/17 08:59:37;;;;;;;;;;;;;;;4.65;100.00;96768.91;5095226;23;20393;-87
2023/01/17 09:02:13;;;;;;;;;;;;;;;4.68;100.00;96773.13;5015678;28;20012;-86
2023/01/17 09:04:39;;;;;;;;;;;;;;;4.66;100.00;96769.75;5035339;28;20248;-92
2023/01/17 09:07:06;;;;;;;;;;;;;;;4.71;100.00;96772.91;5015984;28;19922;-83
2023/01/17 09:09:31;;;;;;;;;;;;;;;4.72;100.00;96766.72;5021456;28;19923;-84
2023/01/17 09:11:56;;;;;;;;;;;;;;;4.74;100.00;96767.47;5039724;28;20020;-84
2023/01/17 09:14:22;;;;;;;;;;;;;;;4.74;100.00;96764.84;5021016;28;20372;-85
2023/01/17 09:16:49;;;;;;;;;;;;;;;4.78;100.00;96768.91;5039665;28;20295;-83
2023/01/17 09:19:17;;;;;;;;;;;;;;;4.75;100.00;96763.06;5040701;28;19920;-87
2023/01/17 09:21:42;;;;;;;;;;;;;;;4.80;100.00;96766.19;5039836;28;19963;-84
2023/01/17 09:24:08;;;;;;;;;;;;;;;4.82;100.00;96761.69;5043210;28;19921;-84
2023/01/17 09:26:35;;;;;;;;;;;;;;;4.80;100.00;96758.31;5023519;28;20011;-86
2023/01/17 09:29:01;;;;;;;;;;;;;;;4.82;100.00;96762.53;5042894;28;19921;-86
2023/01/17 09:31:26;;;;;;;;;;;;;;;4.84;100.00;96765.06;5053716;28;20677;-85
2023/01/17 09:33:52;;;;;;;;;;;;;;;4.85;100.00;96766.72;5038359;28;19928;-84
2023/01/17 09:36:18;;;;;;;;;;;;;;;4.87;100.00;96755.19;5035573;28;19920;-87
2023/01/17 09:38:44;;;;;;;;;;;;;;;4.84;100.00;96752.78;5058554;28;19923;-85
2023/01/17 09:41:21;;;;;;;;;;;;;;;4.86;100.00;96752.66;5059319;28;19925;-90
2023/01/17 09:43:50;;;;;;;;;;;;;;;4.88;100.00;96743.75;5043984;28;19984;-83
2023/01/17 09:46:21;;;;;;;;;;;;;;;4.88;100.00;96754.25;5038930;28;20362;-89
2023/01/17 09:48:48;;;;;;;;;;;;;;;4.90;100.00;96760.22;5045937;28;20327;-86
2023/01/17 09:51:15;;;;;;;;;;;;;;;4.91;100.00;96759.28;5049224;28;19917;-86
2023/01/17 09:53:42;;;;;;;;;;;;;;;4.93;100.00;96764.44;5058374;28;19928;-84
2023/01/17 09:56:10;;;;;;;;;;;;;;;4.93;100.00;96771.44;5044592;28;19925;-86
2023/01/17 09:58:42;;;;;;;;;;;;;;;4.94;100.00;96770.53;5046661;28;19921;-85
2023/01/17 10:01:08;;;;;;;;;;;;;;;4.95;100.00;96769.59;5028869;28;19927;-85
2023/01/17 10:03:56;;;;;;;;;;;;;;;4.94;100.00;96773.16;5057406;28;19921;-87
2023/01/17 10:06:22;;;;;;;;;;;;;;;4.97;100.00;96768.53;5050901;28;20294;-86
2023/01/17 10:08:55;;;;;;;;;;;;;;;4.99;100.00;96766.63;5045243;28;19921;-86
2023/01/17 10:11:35;;;;;;;;;;;;;;;5.00;100.00;96752.56;5021625;28;20288;-85
2023/01/17 10:14:10;;;;;;;;;;;;;;;5.03;100.00;96754.16;5037347;28;20477;-87
2023/01/17 10:17:06;;;;;;;;;;;;;;;5.04;100.00;96746.19;5049454;28;20438;-89
2023/01/17 10:19:32;;;;;;;;;;;;;;;5.06;100.00;96743.44;5036003;28;20272;-85
2023/01/17 10:22:09;;;;;;;;;;;;;;;5.09;100.00;96738.81;5035694;28;19928;-88
2023/01/17 10:24:50;;;;;;;;;;;;;;;5.08;100.00;96738.91;5036100;28;19959;-87
2023/01/17 10:27:22;;;;;;;;;;;;;;;5.07;100.00;96737.22;5032331;28;19965;-84
2023/01/17 10:29:48;;;;;;;;;;;;;;;5.12;100.00;96734.28;5019999;28;20155;-86
2023/01/17 10:32:14;;;;;;;;;;;;;;;5.15;100.00;96727.03;5029220;28;19917;-87
2023/01/17 10:35:00;;;;;;;;;;;;;;;5.17;100.00;96734.81;5035687;28;20016;-85
2023/01/17 10:37:42;;;;;;;;;;;;;;;5.17;100.00;96742.69;5038690;28;19924;-85
2023/01/17 10:40:16;;;;;;;;;;;;;;;5.18;100.00;96745.19;5035004;28;20360;-85
2023/01/17 10:42:50;;;;;;;;;;;;;;;5.21;100.00;96745.00;5016624;28;19925;-84
2023/01/17 10:45:24;;;;;;;;;;;;;;;5.20;100.00;96743.31;5028099;28;20010;-85
2023/01/17 10:47:54;;;;;;;;;;;;;;;5.24;100.00;96741.31;5032852;28;19929;-85
2023/01/17 10:50:21;;;;;;;;;;;;;;;5.25;100.00;96732.50;5046343;28;19924;-85
2023/01/17 10:52:57;;;;;;;;;;;;;;;5.23;100.00;96731.75;5056210;28;19923;-86
2023/01/17 10:55:26;;;;;;;;;;;;;;;5.27;100.00;96734.06;5055496;28;19971;-84
2023/01/17 10:57:51;;;;;;;;;;;;;;;5.27;100.00;96731.44;5033868;28;20040;-83
2023/01/17 11:00:34;;;;;;;;;;;;;;;5.26;100.00;96732.41;5037512;28;20387;-85
2023/01/17 11:03:00;;;;;;;;;;;;;;;5.30;100.00;96732.16;5017342;28;20008;-87
2023/01/17 11:05:32;;;;;;;;;;;;;;;5.31;100.00;96731.22;5017453;28;20007;-88
2023/01/17 11:08:27;;;;;;;;;;;;;;;5.30;100.00;96726.91;5017501;28;20363;-87
2023/01/17 11:10:56;;;;;;;;;;;;;;;5.31;100.00;96728.59;5028009;28;19921;-88
2023/01/17 11:13:35;;;;;;;;;;;;;;;5.31;100.00;96718.94;5033546;28;19921;-88
2023/01/17 11:16:04;;;;;;;;;;;;;;;5.31;100.00;96718.09;5016860;28;19921;-87
2023/01/17 11:18:31;;;;;;;;;;;;;;;5.32;100.00;96717.16;5035148;28;20392;-87
2023/01/17 11:21:10;;;;;;;;;;;;;;;5.33;100.00;96713.56;5034701;28;19956;-89
2023/01/17 11:23:36;;;;;;;;;;;;;;;5.36;100.00;96710.72;5034678;28;20011;-87
2023/01/17 11:26:03;;;;;;;;;;;;;;;5.37;100.00;96708.00;5016894;28;19921;-88
2023/01/17 11:28:30;;;;;;;;;;;;;;;5.40;100.00;96707.78;5016521;28;20343;-84
2023/01/17 11:30:57;;;;;;;;;;;;;;;5.40;100.00;96699.06;5048521;28;19924;-88
2023/01/17 11:33:44;;;;;;;;;;;;;;;5.39;100.00;96685.13;5036082;28;19948;-90
2023/01/17 11:36:19;;;;;;;;;;;;;;;5.41;100.00;96679.75;5030984;28;19948;-88
2023/01/17 11:38:56;;;;;;;;;;;;;;;5.40;100.00;96684.16;5016786;28;19971;-85
2023/01/17 11:41:21;;;;;;;;;;;;;;;5.45;100.00;96678.56;5034618;28;19917;-85
2023/01/17 11:43:55;;;;;;;;;;;;;;;5.43;100.00;96677.84;5018730;28;20398;-85
2023/01/17 11:46:37;;;;;;;;;;;;;;;5.46;100.00;96680.25;5036368;28;19916;-86
2023/01/17 11:49:03;;;;;;;;;;;;;;;5.46;100.00;96682.88;5054350;28;19970;-87
2023/01/17 11:51:30;;;;;;;;;;;;;;;5.50;100.00;96680.88;5038863;28;19920;-89
2023/01/17 11:54:05;;;;;;;;;;;;;;;5.46;100.00;96680.25;5027876;28;20375;-90
2023/01/17 11:56:32;;;;;;;;;;;;;;;5.48;100.00;96677.53;5034349;28;19923;-87
2023/01/17 11:59:23;;;;;;;;;;;;;;;5.49;100.00;96674.78;5032712;28;19925;-86
2023/01/17 12:02:01;;;;;;;;;;;;;;;5.53;100.00;96670.16;5030879;28;20419;-87
2023/01/17 12:04:35;;;;;;;;;;;;;;;5.52;100.00;96664.06;5034617;28;19952;-86
2023/01/17 12:07:01;;;;;;;;;;;;;;;5.51;100.00;96659.75;5039722;28;19939;-86
2023/01/17 12:09:28;;;;;;;;;;;;;;;5.51;100.00;96656.31;5034151;28;20404;-85
2023/01/17 12:14:44;;;;;;;;;;;;;;;5.54;100.00;96635.06;5036644;28;19928;-88
2023/01/17 12:17:16;;;;;;;;;;;;;;;5.55;100.00;96641.97;5023813;28;20368;-89
2023/01/17 12:19:44;;;;;;;;;;;;;;;5.53;100.00;96634.22;5036043;28;20059;-88
2023/01/17 12:22:09;;;;;;;;;;;;;;;5.54;100.00;96638.53;5034607;28;19959;-89
2023/01/17 12:24:52;;;;;;;;;;;;;;;5.56;100.00;96628.75;5033515;28;20340;-86
2023/01/17 12:27:30;;;;;;;;;;;;;;;5.57;100.00;96625.16;5041369;28;20571;-84
2023/01/17 12:30:10;;;;;;;;;;;;;;;5.55;100.00;96616.56;5017943;28;19921;-84
2023/01/17 12:32:36;;;;;;;;;;;;;;;5.58;100.00;96613.69;5018503;28;19964;-86
2023/01/17 12:35:07;;;;;;;;;;;;;;;5.59;100.00;96610.13;5015811;28;19995;-84
2023/01/17 12:37:36;;;;;;;;;;;;;;;5.57;100.00;96609.41;5015634;28;19928;-85
2023/01/17 12:40:16;;;;;;;;;;;;;;;5.57;100.00;96612.03;5015743;28;19932;-84
2023/01/17 12:42:46;;;;;;;;;;;;;;;5.59;100.00;96611.94;5020586;28;20391;-85
2023/01/17 12:45:19;;;;;;;;;;;;;;;5.61;100.00;96602.97;5015633;28;19999;-86
2023/01/17 12:47:47;;;;;;;;;;;;;;;5.61;100.00;96595.09;5019106;28;19921;-86
2023/01/17 12:50:22;;;;;;;;;;;;;;;5.63;100.00;96593.22;5033795;28;19929;-86
2023/01/17 12:53:06;;;;;;;;;;;;;;;5.64;100.00;96589.59;5015699;28;20335;-85
2023/01/17 12:55:46;;;;;;;;;;;;;;;5.67;100.00;96590.34;5036169;28;19921;-86
2023/01/17 12:58:15;;;;;;;;;;;;;;;5.70;100.00;96598.00;5038423;28;19967;-86
2023/01/17 13:00:42;;;;;;;;;;;;;;;5.70;100.00;96582.25;5015133;28;19921;-84
2023/01/17 13:03:15;;;;;;;;;;;;;;;5.71;100.00;96583.91;5033163;28;19925;-86
2023/01/17 13:05:47;;;;;;;;;;;;;;;5.68;100.00;96574.47;5045247;28;19968;-84
2023/01/17 13:08:33;;;;;;;;;;;;;;;5.71;100.00;96573.41;5015699;28;20366;-85
2023/01/17 13:10:58;;;;;;;;;;;;;;;5.71;100.00;96569.00;5016128;28;19950;-87
2023/01/17 13:13:25;;;;;;;;;;;;;;;5.71;100.00;96573.41;5022973;28;19920;-85
2023/01/17 13:15:54;;;;;;;;;;;;;;;5.72;100.00;96573.28;5039373;28;20264;-87
2023/01/17 13:18:24;;;;;;;;;;;;;;;5.72;100.00;96569.84;5038632;28;19921;-86
2023/01/17 13:21:04;;;;;;;;;;;;;;;5.75;100.00;96564.34;5015899;28;20384;-88
2023/01/17 13:23:39;;;;;;;;;;;;;;;5.73;100.00;96559.22;5032867;28;19961;-86
2023/01/17 13:26:11;;;;;;;;;;;;;;;5.75;100.00;96559.09;5038607;28;20312;-87
2023/01/17 13:28:36;;;;;;;;;;;;;;;5.75;100.00;96565.19;5044729;28;20398;-84
2023/01/17 13:31:04;;;;;;;;;;;;;;;5.78;100.00;96558.88;5032166;28;19917;-84
2023/01/17 13:33:36;;;;;;;;;;;;;;;5.79;100.00;96571.03;5032990;28;19917;-86
2023/01/17 13:36:01;;;;;;;;;;;;;;;5.78;100.00;96572.84;5018836;28;19917;-86
2023/01/17 13:38:53;;;;;;;;;;;;;;;5.79;100.00;96565.78;5026611;28;19917;-86
2023/01/17 13:41:37;;;;;;;;;;;;;;;5.78;100.00;96572.00;5032193;28;19929;-87
2023/01/17 13:44:20;;;;;;;;;;;;;;;5.81;100.00;96580.50;5030130;28;20010;-85
2023/01/17 13:47:01;;;;;;;;;;;;;;;5.80;100.00;96577.97;5021999;28;19917;-86
2023/01/17 13:49:35;;;;;;;;;;;;;;;5.82;100.00;96584.81;5018971;28;19987;-85
2023/01/17 13:52:03;;;;;;;;;;;;;;;5.85;100.00;96585.53;5032716;28;19921;-87
2023/01/17 13:54:32;;;;;;;;;;;;;;;5.86;100.00;96581.94;5016400;28;19917;-86
2023/01/17 13:57:16;;;;;;;;;;;;;;;5.85;100.00;96585.53;5041183;28;20041;-87
2023/01/17 13:59:41;;;;;;;;;;;;;;;5.86;100.00;96577.53;5037648;28;19925;-86
2023/01/17 14:02:26;;;;;;;;;;;;;;;5.86;100.00;96577.53;5023908;28;19970;-86
2023/01/17 14:05:06;;;;;;;;;;;;;;;5.88;100.00;96583.50;5034949;28;19931;-85
2023/01/17 14:07:32;;;;;;;;;;;;;;;5.87;100.00;96578.34;5038577;28;19924;-85
2023/01/17 14:09:57;;;;;;;;;;;;;;;5.90;100.00;96581.56;5039464;28;20407;-87
2023/01/17 14:12:30;;;;;;;;;;;;;;;5.93;100.00;96573.47;5017698;28;19925;-85
2023/01/17 14:14:57;;;;;;;;;;;;;;;5.93;100.00;96573.47;5028151;28;20292;-85
2023/01/17 14:17:24;;;;;;;;;;;;;;;5.93;100.00;96578.72;5018277;28;19921;-85
2023/01/17 14:19:51;;;;;;;;;;;;;;;5.94;100.00;96569.06;5031950;28;20268;-85
2023/01/17 14:22:19;;;;;;;;;;;;;;;5.95;100.00;96575.97;5034673;28;20466;-87
2023/01/17 14:24:55;;;;;;;;;;;;;;;5.93;100.00;96575.25;5036025;28;19980;-89
2023/01/17 14:27:22;;;;;;;;;;;;;;;5.96;100.00;96575.91;5020420;28;20004;-87
2023/01/17 14:29:51;;;;;;;;;;;;;;;5.96;100.00;96589.03;5035891;28;19924;-87
2023/01/17 14:32:26;;;;;;;;;;;;;;;5.98;100.00;96581.03;5036761;28;19944;-86
2023/01/17 14:34:52;;;;;;;;;;;;;;;5.97;100.00;96584.63;5038055;28;19917;-88
2023/01/17 14:37:23;;;;;;;;;;;;;;;5.99;100.00;96583.56;5055735;28;20375;-88
2023/01/17 14:39:48;;;;;;;;;;;;;;;5.99;100.00;96577.47;5037700;28;20356;-87
2023/01/17 14:42:16;;;;;;;;;;;;;;;5.98;100.00;96581.91;5055348;28;20022;-87
2023/01/17 14:44:44;;;;;;;;;;;;;;;6.02;100.00;96594.81;5022104;28;20127;-87
2023/01/17 14:47:12;;;;;;;;;;;;;;;6.00;100.00;96587.88;5035546;28;20364;-87
2023/01/17 14:49:37;;;;;;;;;;;;;;;6.02;100.00;96587.75;5013475;28;19913;-89
2023/01/17 14:52:03;;;;;;;;;;;;;;;5.98;100.00;96597.66;5030784;28;20007;-90
2023/01/17 14:54:30;;;;;;;;;;;;;;;6.01;100.00;96593.94;5017299;28;20140;-89
2023/01/17 14:57:21;;;;;;;;;;;;;;;6.02;100.00;96600.91;5032218;28;19971;-88
2023/01/17 14:59:46;;;;;;;;;;;;;;;6.01;100.00;96601.84;5035225;28;20380;-88
2023/01/17 15:02:13;;;;;;;;;;;;;;;6.00;100.00;96603.63;5018110;28;19927;-88
2023/01/17 15:04:39;;;;;;;;;;;;;;;6.00;100.00;96598.38;5017607;28;19960;-87
2023/01/17 15:07:05;;;;;;;;;;;;;;;6.06;100.00;96604.13;5023716;28;19927;-86
2023/01/17 15:09:33;;;;;;;;;;;;;;;6.05;100.00;96602.44;5037157;28;20019;-88
2023/01/17 15:11:58;;;;;;;;;;;;;;;6.08;100.00;96597.81;5055166;28;20279;-87
2023/01/17 15:14:26;;;;;;;;;;;;;;;6.07;100.00;96601.38;5036093;28;19916;-88
2023/01/17 15:16:52;;;;;;;;;;;;;;;6.08;100.00;96594.31;5054639;28;19960;-88
2023/01/17 15:19:18;;;;;;;;;;;;;;;6.09;100.00;96593.38;5030474;28;19964;-88
2023/01/17 15:21:44;;;;;;;;;;;;;;;6.11;100.00;96594.94;5047843;28;19920;-89
2023/01/17 15:24:24;;;;;;;;;;;;;;;6.13;100.00;96600.91;5042593;28;20843;-89
2023/01/17 15:26:50;;;;;;;;;;;;;;;6.14;100.00;96601.75;5039016;28;20015;-88
2023/01/17 15:29:16;;;;;;;;;;;;;;;6.17;100.00;96604.16;5043710;28;20003;-88
2023/01/17 15:31:46;;;;;;;;;;;;;;;6.17;100.00;96591.00;5038627;28;19972;-90
2023/01/17 15:34:24;;;;;;;;;;;;;;;6.16;100.00;96599.88;5027954;28;19998;-90
2023/01/17 15:36:50;;;;;;;;;;;;;;;6.15;100.00;96595.56;5043962;28;20008;-90
2023/01/17 15:39:20;;;;;;;;;;;;;;;6.18;100.00;96590.88;5048680;28;20011;-87
2023/01/17 15:41:46;;;;;;;;;;;;;;;6.20;100.00;96590.78;5050683;28;19917;-92
2023/01/17 15:44:31;;;;;;;;;;;;;;;6.19;100.00;96591.75;5034040;28;20008;-91
2023/01/17 15:46:56;;;;;;;;;;;;;;;6.19;100.00;96594.38;5047226;28;20012;-90
2023/01/17 15:49:23;;;;;;;;;;;;;;;6.20;100.00;96593.41;5029321;28;20019;-89
2023/01/17 15:51:50;;;;;;;;;;;;;;;6.22;100.00;96593.28;5030667;28;19925;-87
2023/01/17 15:54:28;;;;;;;;;;;;;;;6.41;100.00;96590.91;5017124;28;19921;-87
2023/01/17 15:57:16;;;;;;;;;;;;;;;6.32;100.00;96595.09;5052707;28;19920;-88
2023/01/17 15:59:57;;;;;;;;;;;;;;;6.30;100.00;96597.03;5044567;28;20414;-85
2023/01/17 16:02:22;;;;;;;;;;;;;;;6.29;100.00;96599.78;5039213;28;19947;-86
2023/01/17 16:04:47;;;;;;;;;;;;;;;6.28;100.00;96601.53;5025348;28;19922;-86
2023/01/17 16:07:20;;;;;;;;;;;;;;;6.28;100.00;96593.66;5040754;28;19979;-90
2023/01/17 16:09:46;;;;;;;;;;;;;;;6.29;100.00;96602.41;5030998;28;19976;-86
2023/01/17 16:12:11;;;;;;;;;;;;;;;6.29;100.00;96600.59;5030252;28;19932;-86
2023/01/17 16:14:37;;;;;;;;;;;;;;;6.30;100.00;96598.78;5034636;28;20384;-85
2023/01/17 16:17:04;;;;;;;;;;;;;;;6.32;100.00;96602.16;5044270;28;19958;-87
2023/01/17 16:19:29;;;;;;;;;;;;;;;6.31;100.00;96596.06;5031971;28;19970;-85
2023/01/17 16:21:55;;;;;;;;;;;;;;;6.32;100.00;96594.28;5023674;28;19947;-85
2023/01/17 16:24:21;;;;;;;;;;;;;;;6.31;100.00;96592.59;5015222;28;19917;-85
2023/01/17 16:26:46;;;;;;;;;;;;;;;6.33;100.00;96596.78;5015135;28;19917;-86
2023/01/17 16:29:11;;;;;;;;;;;;;;;6.34;100.00;96598.44;5014798;28;19917;-86
2023/01/17 16:31:37;;;;;;;;;;;;;;;6.36;100.00;96590.44;5016298;28;19999;-88
2023/01/17 16:34:04;;;;;;;;;;;;;;;6.35;100.00;96600.13;5041355;28;19921;-85
2023/01/17 16:36:29;;;;;;;;;;;;;;;6.36;100.00;96601.78;5047775;28;20704;-84
2023/01/17 16:38:54;;;;;;;;;;;;;;;6.38;100.00;96601.66;5033217;28;20007;-84
2023/01/17 16:41:20;;;;;;;;;;;;;;;6.39;100.00;96594.63;5021918;28;20352;-86
2023/01/17 16:43:54;;;;;;;;;;;;;;;6.38;100.00;96592.97;5028300;28;20407;-85
2023/01/17 16:46:20;;;;;;;;;;;;;;;6.39;100.00;96600.72;5023480;28;19925;-85
2023/01/17 16:48:45;;;;;;;;;;;;;;;6.40;100.00;96596.28;5050768;28;19927;-85
2023/01/17 16:51:12;;;;;;;;;;;;;;;6.42;100.00;96597.03;5046581;28;19928;-84
2023/01/17 16:53:37;;;;;;;;;;;;;;;6.45;100.00;96602.06;5014769;28;19921;-85
2023/01/17 16:56:07;;;;;;;;;;;;;;;6.43;100.00;96602.19;5014637;28;19918;-85
2023/01/17 16:58:33;;;;;;;;;;;;;;;6.44;100.00;96613.53;5031708;28;20300;-85
2023/01/17 17:00:59;;;;;;;;;;;;;;;6.44;100.00;96610.91;5015291;28;19917;-84
2023/01/17 17:03:24;;;;;;;;;;;;;;;6.44;100.00;96605.63;5019020;28;19998;-85
2023/01/17 17:05:53;;;;;;;;;;;;;;;6.46;100.00;96607.22;5049848;28;19917;-84
2023/01/17 17:08:19;;;;;;;;;;;;;;;6.46;100.00;96608.97;5034144;28;19916;-86
2023/01/17 17:10:44;;;;;;;;;;;;;;;6.48;100.00;96609.72;5052856;28;19923;-84
2023/01/17 17:13:09;;;;;;;;;;;;;;;6.47;100.00;96608.88;5033848;28;20003;-86
2023/01/17 17:15:39;;;;;;;;;;;;;;;6.48;100.00;96614.97;5034869;28;19928;-85
2023/01/17 17:18:04;;;;;;;;;;;;;;;6.47;100.00;96610.66;5035040;28;19924;-85
2023/01/17 17:20:29;;;;;;;;;;;;;;;6.48;100.00;96609.72;5030991;28;19921;-86
2023/01/17 17:22:55;;;;;;;;;;;;;;;6.50;100.00;96613.06;5029078;28;19921;-87
2023/01/17 17:25:20;;;;;;;;;;;;;;;6.52;100.00;96605.88;5034101;28;20427;-86
2023/01/17 17:27:45;;;;;;;;;;;;;;;6.51;100.00;96618.22;5033779;28;19971;-86
2023/01/17 17:30:11;;;;;;;;;;;;;;;6.52;100.00;96611.16;5050655;28;19921;-85
2023/01/17 17:32:36;;;;;;;;;;;;;;;6.53;100.00;96612.84;5038671;28;19920;-86
2023/01/17 17:35:02;;;;;;;;;;;;;;;6.54;100.00;96611.84;5056599;28;19917;-87
2023/01/17 17:37:27;;;;;;;;;;;;;;;6.54;100.00;96609.22;5022314;28;19917;-84
2023/01/17 17:39:54;;;;;;;;;;;;;;;6.54;100.00;96615.34;5056231;28;19921;-85
2023/01/17 17:42:19;;;;;;;;;;;;;;;6.56;100.00;96615.22;5037656;28;19917;-89
2023/01/17 17:44:44;;;;;;;;;;;;;;;6.57;100.00;96618.69;5022763;28;20063;-85
2023/01/17 17:47:12;;;;;;;;;;;;;;;6.56;100.00;96623.13;5017863;28;19927;-86
2023/01/17 17:49:38;;;;;;;;;;;;;;;6.60;100.00;96613.19;5017734;28;19925;-86
2023/01/17 17:52:04;;;;;;;;;;;;;;;6.61;100.00;96626.22;5035675;28;19921;-87
2023/01/17 17:54:29;;;;;;;;;;;;;;;6.61;100.00;96631.50;5035300;28;19918;-85
2023/01/17 17:56:54;;;;;;;;;;;;;;;6.60;100.00;96635.06;5035496;28;19917;-85
2023/01/17 17:59:20;;;;;;;;;;;;;;;6.64;100.00;96630.44;5016494;28;19971;-86
2023/01/17 18:01:45;;;;;;;;;;;;;;;6.61;100.00;96634.13;5045997;28;19927;-85
2023/01/17 18:04:11;;;;;;;;;;;;;;;6.63;100.00;96631.38;5055317;28;19913;-86
2023/01/17 18:06:37;;;;;;;;;;;;;;;6.64;100.00;96631.25;5055258;28;19917;-85
2023/01/17 18:09:03;;;;;;;;;;;;;;;6.64;100.00;96633.88;5050819;28;19918;-86
2023/01/17 18:11:29;;;;;;;;;;;;;;;6.66;100.00;96637.22;5036128;28;19921;-85
2023/01/17 18:13:55;;;;;;;;;;;;;;;6.67;100.00;96631.03;5045949;28;20283;-87
2023/01/17 18:16:22;;;;;;;;;;;;;;;6.67;100.00;96641.53;5054947;28;20287;-88
2023/01/17 18:18:49;;;;;;;;;;;;;;;6.69;100.00;96651.94;5055056;28;19921;-85
2023/01/17 18:21:16;;;;;;;;;;;;;;;6.69;100.00;96644.88;5053574;28;20105;-85
2023/01/17 18:23:42;;;;;;;;;;;;;;;6.70;100.00;96650.97;5037045;28;19921;-85
2023/01/17 18:26:22;;;;;;;;;;;;;;;6.71;100.00;96652.66;5054895;28;19920;-85
2023/01/17 18:28:47;;;;;;;;;;;;;;;6.71;100.00;96656.13;5053753;28;20367;-86
2023/01/17 18:31:13;;;;;;;;;;;;;;;6.71;100.00;96658.75;5054791;28;19923;-85
2023/01/17 18:33:38;;;;;;;;;;;;;;;6.72;100.00;96676.22;5054823;28;19924;-85
2023/01/17 18:36:05;;;;;;;;;;;;;;;6.73;100.00;96671.78;5054673;28;19952;-84
2023/01/17 18:38:37;;;;;;;;;;;;;;;6.76;100.00;96676.00;5041222;28;20284;-86
2023/01/17 18:41:06;;;;;;;;;;;;;;;6.75;100.00;96672.53;5053676;28;19925;-86
2023/01/17 18:43:31;;;;;;;;;;;;;;;6.77;100.00;96675.06;5047468;28;20324;-85
2023/01/17 18:45:57;;;;;;;;;;;;;;;6.76;100.00;96674.19;5035538;28;19943;-85
2023/01/17 18:48:22;;;;;;;;;;;;;;;6.76;100.00;96676.81;5035359;28;19979;-85
2023/01/17 18:50:57;;;;;;;;;;;;;;;6.79;100.00;96676.59;5036251;28;20427;-84
2023/01/17 18:53:23;;;;;;;;;;;;;;;6.78;100.00;96674.06;5029118;28;19917;-88
2023/01/17 18:55:55;;;;;;;;;;;;;;;6.80;100.00;96683.53;5050360;28;20334;-85
2023/01/17 18:58:21;;;;;;;;;;;;;;;6.80;100.00;96691.44;5043312;28;19917;-87
2023/01/17 19:00:49;;;;;;;;;;;;;;;6.81;100.00;96700.16;5050433;28;19917;-89
2023/01/17 19:03:15;;;;;;;;;;;;;;;6.80;100.00;96703.75;5035891;28;20368;-86
2023/01/17 19:05:40;;;;;;;;;;;;;;;6.83;100.00;96692.97;5054950;28;20012;-87
2023/01/17 19:08:05;;;;;;;;;;;;;;;6.83;100.00;96693.84;5054962;28;19960;-88
2023/01/17 19:10:31;;;;;;;;;;;;;;;6.86;100.00;96698.00;5026955;28;20056;-85
2023/01/17 19:12:57;;;;;;;;;;;;;;;6.84;100.00;96706.00;5033731;28;19921;-87
2023/01/17 19:15:22;;;;;;;;;;;;;;;6.85;100.00;96707.69;5034965;28;19923;-86
2023/01/17 19:17:47;;;;;;;;;;;;;;;6.84;100.00;96713.91;5034615;28;19917;-86
2023/01/17 19:20:12;;;;;;;;;;;;;;;6.85;100.00;96712.13;5034789;28;19924;-89
2023/01/17 19:22:38;;;;;;;;;;;;;;;6.85;100.00;96720.03;5034624;28;20368;-86
2023/01/17 19:25:04;;;;;;;;;;;;;;;6.86;100.00;96719.91;5034584;28;20292;-86
2023/01/17 19:27:29;;;;;;;;;;;;;;;6.87;100.00;96718.94;5015590;28;19917;-88
2023/01/17 19:29:54;;;;;;;;;;;;;;;6.88;100.00;96711.91;5034986;28;19921;-86
2023/01/17 19:32:19;;;;;;;;;;;;;;;6.89;100.00;96718.81;5034530;28;19918;-85